Time;durP1;ratioP1;P1;durP2;ratioP2;P2;SDS_P1;SDS_P2;PMS_P1;PMS_P2;Temp;Humidity;BMP_temperature;BMP_pressure;BME280_temperature;BME280_humidity;BME280_pressure;Samples;Min_cycle;Max_cycle;Signal;HPM_P1;HPM_P2
2022/07/20 00:01:38;;;;;;;1.87;1.60;;;;;;;26.31;32.60;95661.31;6159535;28;103057;-55
2022/07/20 00:04:41;;;;;;;1.73;1.63;;;;;;;26.32;32.79;95664.78;6146917;28;103007;-55
2022/07/20 00:07:44;;;;;;;2.03;1.83;;;;;;;26.34;32.62;95665.25;6159983;28;103471;-55
2022/07/20 00:14:09;;;;;;;2.30;1.80;;;;;;;26.20;32.66;95660.81;6152479;28;104292;-54
2022/07/20 00:17:13;;;;;;;2.10;1.90;;;;;;;26.10;33.03;95660.38;6152836;28;104447;-54
2022/07/20 00:20:16;;;;;;;2.50;2.30;;;;;;;26.04;33.25;95662.41;6160269;28;103051;-55
2022/07/20 00:23:20;;;;;;;2.73;2.10;;;;;;;25.96;33.27;95645.19;6160389;28;103638;-56
2022/07/20 00:26:24;;;;;;;2.10;1.70;;;;;;;25.91;33.46;95647.25;6147905;28;103494;-54
2022/07/20 00:29:27;;;;;;;2.83;1.80;;;;;;;25.86;33.38;95645.50;6160181;28;103514;-54
2022/07/20 00:32:30;;;;;;;3.57;2.03;;;;;;;25.82;33.50;95636.50;6154763;28;103386;-54
2022/07/20 00:35:34;;;;;;;2.07;1.90;;;;;;;25.75;33.60;95640.78;6160152;28;102793;-54
2022/07/20 00:38:37;;;;;;;2.27;2.07;;;;;;;25.85;33.71;95643.94;6147177;28;104123;-55
2022/07/20 00:41:41;;;;;;;2.27;2.17;;;;;;;25.96;33.58;95639.84;6142850;28;103075;-54
2022/07/20 00:44:44;;;;;;;3.03;2.30;;;;;;;26.06;33.38;95654.88;6159352;28;103227;-54
2022/07/20 00:47:48;;;;;;;2.40;2.20;;;;;;;26.18;33.33;95651.53;6143374;28;103316;-54
2022/07/20 00:50:51;;;;;;;1.80;1.70;;;;;;;26.22;33.36;95644.44;6153892;28;103217;-55
2022/07/20 00:53:55;;;;;;;1.97;1.87;;;;;;;26.30;33.31;95658.94;6158967;28;104329;-55
2022/07/20 00:57:00;;;;;;;2.30;2.10;;;;;;;26.31;33.35;95655.94;6159488;28;103473;-55
2022/07/20 01:00:06;;;;;;;2.97;2.70;;;;;;;26.26;33.46;95651.53;6148311;28;103115;-55
2022/07/20 01:03:10;;;;;;;2.60;2.40;;;;;;;26.14;33.43;95650.59;6159463;28;103988;-55
2022/07/20 01:06:13;;;;;;;2.70;2.10;;;;;;;26.04;33.95;95651.69;6159708;28;103633;-54
2022/07/20 01:09:18;;;;;;;4.80;2.70;;;;;;;25.95;33.98;95648.97;6156863;28;103100;-55
2022/07/20 01:12:22;;;;;;;3.10;2.50;;;;;;;25.89;34.15;95655.63;6149763;28;104617;-55
2022/07/20 01:15:25;;;;;;;2.97;2.40;;;;;;;25.84;34.45;95652.28;6157220;28;104295;-55
2022/07/20 01:18:28;;;;;;;2.40;2.30;;;;;;;25.78;34.45;95648.97;6155472;28;104303;-55
2022/07/20 01:21:39;;;;;;;2.80;2.60;;;;;;;25.76;35.00;95643.16;6157526;28;103144;-55
2022/07/20 01:24:42;;;;;;;2.47;2.27;;;;;;;25.77;34.15;95639.34;6153015;28;103146;-50
2022/07/20 01:27:46;;;;;;;2.37;2.17;;;;;;;25.90;34.53;95640.31;6159361;28;103393;-50
2022/07/20 01:30:49;;;;;;;2.70;2.50;;;;;;;25.99;34.32;95641.09;6156845;28;103105;-50
2022/07/20 01:33:52;;;;;;;3.40;2.60;;;;;;;26.02;34.33;95645.84;6146542;28;103189;-50
2022/07/20 01:36:56;;;;;;;3.50;2.87;;;;;;;26.11;33.89;95641.28;6158881;28;103561;-50
2022/07/20 01:39:59;;;;;;;2.50;2.30;;;;;;;26.14;34.13;95634.50;6155982;28;103461;-50
2022/07/20 01:43:03;;;;;;;2.67;2.47;;;;;;;26.18;34.13;95638.91;6158593;28;103210;-50
2022/07/20 01:46:06;;;;;;;3.67;2.60;;;;;;;26.12;34.10;95632.13;6148128;28;102978;-51
2022/07/20 01:49:09;;;;;;;2.60;2.40;;;;;;;26.03;34.07;95627.88;6155143;28;104043;-51
2022/07/20 01:52:14;;;;;;;3.00;2.47;;;;;;;25.92;34.14;95632.75;6157159;28;104216;-51
2022/07/20 01:55:17;;;;;;;2.20;2.03;;;;;;;25.86;34.35;95637.44;6158539;28;103153;-50
2022/07/20 01:58:21;;;;;;;2.50;2.30;;;;;;;25.77;34.47;95636.69;6151809;28;103204;-50
2022/07/20 02:01:24;;;;;;;2.47;2.10;;;;;;;25.73;34.59;95632.28;6161876;28;104578;-50
2022/07/20 02:04:27;;;;;;;2.00;1.90;;;;;;;25.65;34.77;95642.66;6156256;28;103631;-51
2022/07/20 02:07:32;;;;;;;3.17;1.93;;;;;;;25.63;34.73;95641.38;6149733;28;105645;-51
2022/07/20 02:10:36;;;;;;;5.00;4.60;;;;;;;25.60;34.78;95650.06;6146338;28;104150;-51
2022/07/20 02:13:39;;;;;;;11.73;10.63;;;;;;;25.72;34.85;95654.81;6155905;28;104558;-51
2022/07/20 02:16:42;;;;;;;8.90;8.17;;;;;;;25.80;34.55;95652.13;6159075;28;103157;-51
2022/07/20 02:19:45;;;;;;;6.27;5.73;;;;;;;25.90;34.34;95657.19;6139835;28;102994;-51
2022/07/20 02:22:50;;;;;;;4.87;4.43;;;;;;;25.96;34.35;95644.41;6150356;28;103103;-51
2022/07/20 02:25:53;;;;;;;4.80;4.50;;;;;;;25.98;34.51;95650.25;6162289;28;103382;-51
2022/07/20 02:28:56;;;;;;;4.37;3.90;;;;;;;25.99;33.80;95651.81;6156600;28;103541;-51
2022/07/20 02:31:59;;;;;;;4.30;4.00;;;;;;;26.04;34.20;95645.53;6150952;28;103495;-51
2022/07/20 02:35:02;;;;;;;3.10;2.90;;;;;;;25.95;34.06;95645.50;6161937;28;102977;-51
2022/07/20 02:38:07;;;;;;;3.17;2.97;;;;;;;25.84;34.51;95652.28;6159369;28;103401;-51
2022/07/20 02:41:10;;;;;;;3.23;2.93;;;;;;;25.76;34.50;95648.50;6158966;28;103328;-52
2022/07/20 02:44:13;;;;;;;2.90;2.63;;;;;;;25.68;34.54;95650.06;6156101;28;103233;-51
2022/07/20 02:47:16;;;;;;;2.27;2.10;;;;;;;25.63;34.38;95652.91;6155166;28;103237;-51
2022/07/20 02:50:20;;;;;;;2.60;2.40;;;;;;;25.60;34.63;95658.91;6153092;28;103003;-51
2022/07/20 02:53:24;;;;;;;3.30;3.00;;;;;;;25.57;34.83;95664.88;6152719;28;104314;-53
2022/07/20 02:56:27;;;;;;;2.80;2.60;;;;;;;25.53;34.88;95658.56;6153609;28;103503;-51
2022/07/20 02:59:31;;;;;;;4.27;3.97;;;;;;;25.55;34.68;95666.31;6162322;28;103136;-50
2022/07/20 03:02:34;;;;;;;4.00;3.80;;;;;;;25.66;34.37;95668.34;6157685;28;103878;-51
2022/07/20 03:05:37;;;;;;;3.10;2.90;;;;;;;25.73;34.46;95664.44;6149461;28;103331;-52
2022/07/20 03:08:42;;;;;;;2.80;2.47;;;;;;;25.83;34.32;95669.47;6161468;28;103076;-51
2022/07/20 03:11:45;;;;;;;4.13;3.03;;;;;;;25.86;34.17;95663.47;6162403;28;103455;-52
2022/07/20 03:14:48;;;;;;;2.60;2.40;;;;;;;25.97;34.00;95660.19;6155981;28;103314;-51
2022/07/20 03:17:54;;;;;;;2.80;2.60;;;;;;;26.05;33.95;95664.03;6147280;28;103405;-51
2022/07/20 03:20:57;;;;;;;3.07;2.70;;;;;;;26.06;34.00;95665.59;6161775;28;103058;-51
2022/07/20 03:24:02;;;;;;;2.90;2.70;;;;;;;25.98;34.10;95675.16;6161402;28;104010;-52
2022/07/20 03:27:05;;;;;;;2.80;2.53;;;;;;;25.87;34.72;95681.16;6155826;28;103297;-51
2022/07/20 03:30:09;;;;;;;2.70;2.37;;;;;;;25.78;34.24;95675.78;6149622;28;104138;-52
2022/07/20 03:33:12;;;;;;;4.23;3.10;;;;;;;25.73;34.33;95683.22;6159616;28;104178;-51
2022/07/20 03:36:16;;;;;;;4.13;2.60;;;;;;;25.71;34.64;95680.03;6160978;28;103341;-50
2022/07/20 03:39:20;;;;;;;6.03;3.87;;;;;;;25.60;34.76;95685.69;6150492;28;103706;-52
2022/07/20 03:42:23;;;;;;;7.50;3.50;;;;;;;25.56;35.74;95683.97;6160976;28;103177;-53
2022/07/20 03:45:26;;;;;;;8.13;3.10;;;;;;;25.65;34.72;95693.59;6152063;28;104324;-53
2022/07/20 03:48:30;;;;;;;7.33;3.20;;;;;;;25.80;35.14;95704.97;6149075;28;102924;-53
2022/07/20 03:51:33;;;;;;;5.77;3.10;;;;;;;25.99;34.83;95697.41;6148050;28;103200;-55
2022/07/20 03:54:38;;;;;;;4.70;2.70;;;;;;;26.16;34.33;95691.28;6161897;28;103237;-55
2022/07/20 03:57:41;;;;;;;3.10;2.80;;;;;;;26.10;34.43;95697.94;6159310;28;104227;-55
2022/07/20 04:00:45;;;;;;;4.33;2.80;;;;;;;26.11;34.44;95699.50;6155019;28;104074;-55
2022/07/20 04:03:48;;;;;;;2.70;2.50;;;;;;;26.14;34.56;95699.66;6154911;28;104371;-55
2022/07/20 04:06:51;;;;;;;4.63;2.67;;;;;;;26.12;34.63;95696.50;6156626;28;103302;-53
2022/07/20 04:09:55;;;;;;;3.20;2.90;;;;;;;25.99;34.66;95700.09;6159770;28;104497;-53
2022/07/20 04:12:59;;;;;;;2.90;2.70;;;;;;;25.87;35.01;95698.03;6149090;28;103228;-54
2022/07/20 04:16:02;;;;;;;3.03;2.47;;;;;;;25.66;35.70;95689.00;6158677;28;106473;-55
2022/07/20 04:19:05;;;;;;;2.73;2.47;;;;;;;25.69;34.85;95694.53;6143752;28;103458;-52
2022/07/20 04:22:08;;;;;;;4.07;2.47;;;;;;;25.52;35.68;95699.84;6151926;28;103738;-53
2022/07/20 04:25:13;;;;;;;8.43;3.17;;;;;;;25.52;35.54;95699.84;6146395;28;103233;-52
2022/07/20 04:28:16;;;;;;;6.20;3.23;;;;;;;25.52;35.52;95699.84;6158112;28;105587;-52
2022/07/20 04:31:19;;;;;;;4.57;2.40;;;;;;;25.61;35.24;95698.00;6159582;28;103277;-52
2022/07/20 04:34:22;;;;;;;8.27;3.07;;;;;;;25.60;35.65;95698.31;6155517;28;104168;-52
2022/07/20 04:37:26;;;;;;;13.17;3.70;;;;;;;25.77;35.89;95708.28;6136138;28;104513;-53
2022/07/20 04:40:30;;;;;;;8.57;3.23;;;;;;;25.89;36.34;95708.47;6155791;28;103051;-53
2022/07/20 04:43:38;;;;;;;4.53;2.97;;;;;;;26.03;35.32;95713.69;6157727;28;103365;-51
2022/07/20 04:46:41;;;;;;;6.10;2.90;;;;;;;25.59;35.31;95716.28;6137343;28;104966;-54
2022/07/20 04:49:45;;;;;;;7.23;3.00;;;;;;;25.68;35.49;95719.75;6141923;28;103016;-52
2022/07/20 04:52:48;;;;;;;4.17;3.10;;;;;;;25.79;35.16;95714.13;6132766;28;103793;-53
2022/07/20 04:55:52;;;;;;;13.80;3.20;;;;;;;25.78;34.80;95712.53;6146428;28;103149;-52
2022/07/20 04:58:55;;;;;;;7.30;3.30;;;;;;;25.84;34.85;95719.31;6147854;28;103225;-53
2022/07/20 05:01:58;;;;;;;3.53;3.20;;;;;;;25.87;35.08;95716.78;6135726;28;103809;-52
2022/07/20 05:05:02;;;;;;;3.70;3.00;;;;;;;25.43;35.79;95722.38;6133371;28;104162;-53
2022/07/20 05:08:05;;;;;;;8.53;3.03;;;;;;;25.49;36.21;95713.88;6133256;28;103582;-53
2022/07/20 05:11:10;;;;;;;3.77;3.27;;;;;;;25.21;36.87;95717.88;6124584;28;104582;-52
2022/07/20 05:14:14;;;;;;;5.40;3.20;;;;;;;24.40;37.75;95716.13;6159574;28;102943;-51
2022/07/20 05:17:17;;;;;;;6.53;3.00;;;;;;;24.63;37.85;95724.13;6149781;28;104175;-55
2022/07/20 05:20:20;;;;;;;10.70;3.47;;;;;;;24.98;36.77;95720.59;6149762;28;103335;-54
2022/07/20 05:23:23;;;;;;;6.00;3.40;;;;;;;25.13;36.72;95732.00;6152712;28;104684;-60
2022/07/20 05:26:30;;;;;;;8.30;3.40;;;;;;;25.31;36.47;95729.09;6160199;28;102775;-56
2022/07/20 05:29:33;;;;;;;3.80;3.47;;;;;;;25.51;36.44;95735.00;6158641;28;103431;-56
2022/07/20 05:32:37;;;;;;;5.40;3.20;;;;;;;25.65;35.99;95731.13;6149191;28;103816;-55
2022/07/20 05:35:40;;;;;;;5.90;3.37;;;;;;;25.75;35.98;95730.03;6158185;28;103186;-55
2022/07/20 05:38:43;;;;;;;3.70;3.40;;;;;;;25.85;35.68;95735.09;6159113;28;103535;-55
2022/07/20 05:41:48;;;;;;;3.90;3.30;;;;;;;25.79;35.90;95730.22;6159979;28;104379;-54
2022/07/20 05:44:51;;;;;;;3.33;2.90;;;;;;;25.78;36.34;95731.31;6147719;28;103247;-53
2022/07/20 05:47:54;;;;;;;5.23;3.40;;;;;;;25.86;36.07;95727.84;6159045;28;103042;-53
2022/07/20 05:50:57;;;;;;;4.73;3.47;;;;;;;25.44;36.87;95724.75;6158842;28;102724;-52
2022/07/20 05:54:01;;;;;;;4.77;3.60;;;;;;;25.42;36.67;95731.53;6159710;28;104361;-55
2022/07/20 05:57:05;;;;;;;7.00;3.70;;;;;;;25.67;36.42;95728.91;6150857;28;105279;-55
2022/07/20 06:00:15;;;;;;;9.17;4.00;;;;;;;25.70;36.42;95730.16;6159053;28;104090;-54
2022/07/20 06:03:18;;;;;;;6.13;3.80;;;;;;;25.75;36.21;95735.41;6159227;28;103115;-54
2022/07/20 06:06:21;;;;;;;4.67;3.50;;;;;;;25.84;35.87;95720.09;6148603;28;104793;-53
2022/07/20 06:09:24;;;;;;;6.10;3.60;;;;;;;25.84;36.40;95727.38;6158340;28;103829;-54
2022/07/20 06:12:29;;;;;;;5.50;3.70;;;;;;;25.78;36.28;95731.31;6158757;28;103056;-54
2022/07/20 06:15:33;;;;;;;3.70;3.40;;;;;;;25.69;36.42;95729.38;6159532;28;103508;-54
2022/07/20 06:18:36;;;;;;;3.50;3.03;;;;;;;25.71;36.73;95731.78;6150222;28;105656;-54
2022/07/20 06:21:39;;;;;;;3.63;2.80;;;;;;;25.87;36.06;95726.72;6158746;28;104316;-53
2022/07/20 06:24:42;;;;;;;5.37;3.20;;;;;;;25.91;36.37;95733.06;6159067;28;104049;-54
2022/07/20 06:28:00;;;;;;;4.37;3.10;;;;;;;26.02;37.26;95742.41;6158770;28;103999;-55
2022/07/20 06:31:05;;;;;;;3.30;2.73;;;;;;;26.19;36.92;95737.06;6149667;28;104899;-53
2022/07/20 06:34:10;;;;;;;7.20;3.77;;;;;;;26.32;36.41;95738.00;6159144;28;104839;-53
2022/07/20 06:37:13;;;;;;;5.00;3.90;;;;;;;26.44;35.92;95732.03;6157964;28;103102;-54
2022/07/20 06:40:16;;;;;;;8.80;3.43;;;;;;;26.67;35.99;95725.38;6150049;28;104246;-56
2022/07/20 06:43:22;;;;;;;6.10;4.10;;;;;;;26.69;35.29;95720.47;6161267;28;104322;-54
2022/07/20 06:46:25;;;;;;;21.13;5.47;;;;;;;26.64;35.36;95717.19;6162258;28;104014;-54
2022/07/20 06:49:28;;;;;;;17.70;4.90;;;;;;;26.76;35.77;95714.66;6162326;28;104298;-50
2022/07/20 06:52:32;;;;;;;10.63;4.67;;;;;;;27.08;35.19;95718.66;6152905;28;103351;-50
2022/07/20 06:55:35;;;;;;;30.63;6.40;;;;;;;27.31;35.35;95722.72;6162564;28;102953;-51
2022/07/20 06:58:39;;;;;;;8.03;4.57;;;;;;;27.54;35.25;95717.06;6162495;28;103085;-51
2022/07/20 07:01:42;;;;;;;15.20;6.10;;;;;;;27.72;34.86;95711.28;6162032;28;103272;-52
2022/07/20 07:04:46;;;;;;;18.80;12.17;;;;;;;27.82;35.13;95714.69;6150874;28;103547;-51
2022/07/20 07:07:49;;;;;;;83.63;49.73;;;;;;;27.64;35.57;95711.31;6162103;28;104297;-50
2022/07/20 07:10:52;;;;;;;250.20;152.90;;;;;;;27.42;35.63;95704.34;6162287;28;104285;-51
2022/07/20 07:13:56;;;;;;;360.87;201.40;;;;;;;26.97;36.49;95704.78;6156686;28;103329;-55
2022/07/20 07:17:00;;;;;;;307.97;164.13;;;;;;;27.05;35.75;95700.47;6156939;28;103972;-51
2022/07/20 07:20:03;;;;;;;391.23;146.40;;;;;;;26.97;36.10;95704.00;6161587;28;103091;-52
2022/07/20 07:23:07;;;;;;;307.37;141.30;;;;;;;27.20;35.61;95702.63;6162254;28;103022;-51
2022/07/20 07:26:10;;;;;;;264.37;132.00;;;;;;;27.37;35.43;95699.13;6151733;28;104108;-51
2022/07/20 07:29:15;;;;;;;249.50;123.50;;;;;;;27.43;35.65;95700.53;6162068;28;103287;-50
2022/07/20 07:32:18;;;;;;;230.07;115.47;;;;;;;27.43;35.97;95701.31;6161819;28;104556;-51
2022/07/20 07:35:21;;;;;;;196.90;111.87;;;;;;;27.45;36.29;95693.72;6161471;28;102830;-52
2022/07/20 07:38:25;;;;;;;203.30;108.27;;;;;;;27.54;35.49;95690.19;6151303;28;104068;-51
2022/07/20 07:41:28;;;;;;;197.33;106.17;;;;;;;27.70;35.38;95697.34;6161114;28;103480;-51
2022/07/20 07:44:33;;;;;;;195.70;107.63;;;;;;;27.83;35.15;95689.38;6161212;28;103023;-51
2022/07/20 07:47:36;;;;;;;193.30;120.03;;;;;;;27.93;35.57;95703.25;6146359;28;103346;-52
2022/07/20 07:50:41;;;;;;;189.23;113.17;;;;;;;27.97;35.27;95696.09;6128743;28;103244;-51
2022/07/20 07:53:44;;;;;;;181.77;113.57;;;;;;;28.12;35.42;95693.94;6136452;28;103118;-51
2022/07/20 07:56:48;;;;;;;162.90;105.63;;;;;;;28.17;35.64;95696.44;6137387;28;103262;-50
2022/07/20 07:59:52;;;;;;;164.80;102.43;;;;;;;28.26;35.36;95697.16;6127110;28;104753;-52
2022/07/20 08:02:55;;;;;;;166.17;99.23;;;;;;;28.31;35.35;95691.56;6136706;28;103127;-50
2022/07/20 08:05:58;;;;;;;150.07;93.17;;;;;;;28.35;35.05;95687.09;6136719;28;102755;-51
2022/07/20 08:09:03;;;;;;;136.97;90.57;;;;;;;28.41;35.50;95680.41;6136438;28;104099;-50
2022/07/20 08:12:07;;;;;;;123.80;75.60;;;;;;;28.25;35.27;95690.22;6125826;28;102890;-59
2022/07/20 08:15:12;;;;;;;84.50;56.70;;;;;;;28.15;34.90;95682.53;6136872;28;103259;-50
2022/07/20 08:18:15;;;;;;;76.70;52.13;;;;;;;28.08;34.85;95679.59;6136722;28;103072;-51
2022/07/20 08:21:18;;;;;;;67.70;48.43;;;;;;;28.04;34.87;95677.53;6136658;28;103322;-52
2022/07/20 08:24:21;;;;;;;72.30;46.40;;;;;;;28.00;35.42;95679.31;6126351;28;103551;-51
2022/07/20 08:27:24;;;;;;;63.00;41.97;;;;;;;27.97;35.57;95679.19;6136205;28;103432;-51
2022/07/20 08:30:29;;;;;;;69.47;39.67;;;;;;;27.96;34.79;95673.00;6136530;28;103123;-51
2022/07/20 08:33:52;;;;;;;57.33;35.97;;;;;;;27.95;34.47;95671.44;6126549;28;102812;-53
2022/07/20 08:36:56;;;;;;;54.07;33.53;;;;;;;28.09;34.44;95673.88;6136565;28;105827;-51
2022/07/20 08:39:59;;;;;;;51.33;31.30;;;;;;;28.21;34.33;95671.22;6135656;28;104780;-51
2022/07/20 08:43:03;;;;;;;46.33;30.50;;;;;;;28.33;34.61;95667.78;6135761;28;103286;-51
2022/07/20 08:46:08;;;;;;;47.93;30.53;;;;;;;28.41;34.17;95669.63;6127270;28;105043;-51
2022/07/20 08:49:13;;;;;;;42.30;26.03;;;;;;;28.48;33.51;95664.50;6160557;28;104009;-51
2022/07/20 08:52:18;;;;;;;39.27;24.40;;;;;;;28.54;34.09;95659.69;6160815;28;104188;-51
2022/07/20 08:55:21;;;;;;;36.33;22.23;;;;;;;28.59;34.07;95662.19;6160104;28;103446;-52
2022/07/20 08:58:25;;;;;;;42.20;22.33;;;;;;;28.59;33.98;95656.81;6150127;28;104396;-51
2022/07/20 09:01:29;;;;;;;114.60;24.53;;;;;;;28.44;34.24;95655.50;6160045;28;103181;-58
2022/07/20 09:04:34;;;;;;;27.10;7.80;;;;;;;27.94;32.83;95652.94;6160234;28;103491;-62
2022/07/20 09:07:40;;;;;;;8.43;3.37;;;;;;;27.93;31.66;95649.47;6155922;28;105733;-57
2022/07/20 09:10:46;;;;;;;6.67;3.30;;;;;;;27.86;31.39;95643.81;6153470;28;103219;-58
2022/07/20 09:13:53;;;;;;;6.13;3.60;;;;;;;27.66;31.86;95645.34;6160743;28;104021;-59
2022/07/20 09:16:58;;;;;;;3.67;3.00;;;;;;;27.58;31.77;95643.50;6160740;28;104264;-59
2022/07/20 09:20:06;;;;;;;3.50;2.40;;;;;;;27.37;31.28;95643.47;6150228;28;104202;-61
2022/07/20 09:23:11;;;;;;;12.93;3.40;;;;;;;27.42;31.64;95640.59;6159854;28;103189;-59
2022/07/20 09:26:18;;;;;;;4.07;3.17;;;;;;;27.46;31.72;95646.09;6160212;28;104355;-58
2022/07/20 09:29:21;;;;;;;4.10;2.63;;;;;;;27.69;31.20;95641.19;6160109;28;103234;-58
2022/07/20 09:32:26;;;;;;;3.90;2.47;;;;;;;27.70;31.22;95635.50;6149305;28;103199;-60
2022/07/20 09:35:31;;;;;;;2.30;2.10;;;;;;;27.85;30.34;95636.03;6159419;28;103070;-59
2022/07/20 09:38:36;;;;;;;3.30;1.80;;;;;;;27.87;29.83;95631.91;6159797;28;104338;-60
2022/07/20 09:41:42;;;;;;;4.40;1.90;;;;;;;27.98;30.21;95630.41;6153004;28;104297;-59
2022/07/20 09:44:46;;;;;;;2.47;2.27;;;;;;;28.11;30.27;95619.72;6145391;28;104631;-59
2022/07/20 09:48:05;;;;;;;3.90;2.37;;;;;;;27.96;29.48;95621.09;6146843;28;103562;-59
2022/07/20 09:51:18;;;;;;;2.37;2.00;;;;;;;28.01;29.48;95616.28;6140270;28;104169;-59
2022/07/20 09:54:22;;;;;;;2.00;1.90;;;;;;;28.08;29.48;95612.31;6124774;28;103705;-59
2022/07/20 09:57:25;;;;;;;2.40;2.00;;;;;;;27.92;28.73;95610.22;6135130;28;104318;-60
2022/07/20 10:00:29;;;;;;;2.90;2.03;;;;;;;27.90;29.38;95612.47;6135041;28;103109;-51
2022/07/20 10:03:34;;;;;;;2.40;1.80;;;;;;;28.02;28.70;95615.19;6134470;28;104133;-50
2022/07/20 10:06:39;;;;;;;1.97;1.80;;;;;;;28.01;29.28;95602.84;6124561;28;103095;-51
2022/07/20 10:09:42;;;;;;;2.50;2.00;;;;;;;27.97;29.73;95601.94;6134324;28;102729;-51
2022/07/20 10:12:46;;;;;;;3.63;2.33;;;;;;;27.96;30.30;95600.38;6133602;28;103124;-51
2022/07/20 10:15:55;;;;;;;4.40;2.33;;;;;;;27.91;30.57;95589.03;6129777;28;104299;-52
2022/07/20 10:19:00;;;;;;;2.50;2.00;;;;;;;27.85;30.88;95588.41;6136004;28;103931;-53
2022/07/20 10:22:03;;;;;;;2.40;1.80;;;;;;;27.86;31.06;95595.38;6138768;28;103512;-52
2022/07/20 10:25:19;;;;;;;3.47;2.00;;;;;;;27.99;30.21;95582.78;6139069;28;104463;-52
2022/07/20 10:28:29;;;;;;;6.00;2.27;;;;;;;28.11;30.26;95579.34;6127934;28;103374;-51
2022/07/20 10:31:50;;;;;;;4.77;2.40;;;;;;;28.20;30.54;95575.44;6138526;28;104114;-52
2022/07/20 10:34:56;;;;;;;3.23;2.13;;;;;;;28.30;30.48;95577.72;6139086;28;103997;-51
2022/07/20 10:38:00;;;;;;;2.47;2.10;;;;;;;28.34;30.52;95561.69;6137003;28;105263;-51
2022/07/20 10:44:30;;;;;;;2.17;1.97;;;;;;;28.42;30.59;95560.03;6136879;28;103031;-52
2022/07/20 10:47:44;;;;;;;2.93;2.03;;;;;;;28.45;30.43;95552.06;6151300;28;103155;-51
2022/07/20 10:50:52;;;;;;;2.50;2.10;;;;;;;28.47;30.64;95546.38;6153052;28;103927;-52
2022/07/20 10:53:55;;;;;;;2.50;1.70;;;;;;;28.39;30.38;95547.22;6161736;28;103258;-52
2022/07/20 10:56:58;;;;;;;4.27;1.90;;;;;;;28.29;30.60;95548.44;6162708;28;103160;-52
2022/07/20 11:00:11;;;;;;;2.17;1.90;;;;;;;28.15;30.80;95540.66;6162751;28;103027;-52
2022/07/20 11:03:16;;;;;;;1.90;1.80;;;;;;;28.10;30.98;95540.88;6152376;28;104682;-52
2022/07/20 11:06:23;;;;;;;3.80;2.40;;;;;;;28.02;31.65;95533.66;6162552;28;103151;-52
2022/07/20 11:09:32;;;;;;;5.27;2.77;;;;;;;28.13;31.86;95534.84;6162038;28;103332;-52
2022/07/20 11:12:35;;;;;;;18.60;3.97;;;;;;;28.22;31.84;95532.03;6157974;28;106489;-51
2022/07/20 11:15:40;;;;;;;13.53;3.90;;;;;;;28.28;32.30;95531.50;6155742;28;104015;-52
2022/07/20 11:18:43;;;;;;;17.53;4.07;;;;;;;28.33;32.08;95531.28;6161929;28;103095;-52
2022/07/20 11:21:47;;;;;;;18.07;4.23;;;;;;;28.38;32.37;95529.47;6162164;28;103171;-52
2022/07/20 11:24:55;;;;;;;21.77;4.00;;;;;;;28.45;32.79;95518.97;6150597;28;103125;-51
2022/07/20 11:28:02;;;;;;;15.00;4.00;;;;;;;28.47;32.59;95519.44;6160598;28;103225;-51
2022/07/20 11:31:07;;;;;;;13.00;3.90;;;;;;;28.49;32.86;95526.06;6161864;28;104293;-51
2022/07/20 11:34:14;;;;;;;12.13;4.00;;;;;;;28.21;32.93;95509.72;6162165;28;104375;-51
2022/07/20 11:37:19;;;;;;;7.17;3.60;;;;;;;28.19;32.96;95519.25;6151876;28;104245;-52
2022/07/20 11:40:23;;;;;;;8.00;3.27;;;;;;;28.14;31.93;95506.00;6161374;28;103242;-52
2022/07/20 11:43:27;;;;;;;10.50;3.33;;;;;;;28.09;32.37;95508.94;6160997;28;105770;-52
2022/07/20 11:46:36;;;;;;;8.33;3.37;;;;;;;28.01;32.51;95511.34;6149083;28;103211;-52
2022/07/20 11:49:39;;;;;;;6.97;3.10;;;;;;;27.93;32.36;95509.56;6132526;28;103049;-52
2022/07/20 11:52:44;;;;;;;3.77;2.27;;;;;;;28.00;32.33;95509.78;6136590;28;103469;-52
2022/07/20 11:55:47;;;;;;;7.03;4.50;;;;;;;28.11;32.00;95504.78;6136868;28;102775;-52
2022/07/20 11:58:53;;;;;;;11.03;7.00;;;;;;;28.19;32.55;95511.97;6127027;28;103329;-52
2022/07/20 12:01:59;;;;;;;9.60;6.80;;;;;;;28.32;32.41;95502.00;6136887;28;103293;-51
2022/07/20 12:05:07;;;;;;;16.73;7.33;;;;;;;28.32;33.20;95499.31;6136977;28;103259;-52
2022/07/20 12:08:15;;;;;;;14.77;6.63;;;;;;;28.43;33.18;95505.06;6136646;28;103066;-52
2022/07/20 12:11:18;;;;;;;28.10;8.90;;;;;;;28.42;32.76;95506.97;6126540;28;103263;-52
2022/07/20 12:14:30;;;;;;;22.47;8.20;;;;;;;28.50;33.29;95508.00;6136299;28;104291;-52
2022/07/20 12:17:54;;;;;;;26.40;8.10;;;;;;;28.41;33.10;95494.63;6135883;28;102733;-52
2022/07/20 12:21:01;;;;;;;27.00;8.03;;;;;;;28.25;33.43;95499.88;6127255;28;104284;-53
2022/07/20 12:24:06;;;;;;;24.17;7.40;;;;;;;28.20;34.28;95496.59;6135584;28;102917;-52
2022/07/20 12:27:09;;;;;;;31.97;8.60;;;;;;;28.19;34.66;95484.25;6136394;28;103062;-52
2022/07/20 12:30:30;;;;;;;25.03;7.37;;;;;;;28.07;34.50;95478.88;6136294;28;103711;-52
2022/07/20 12:33:33;;;;;;;30.53;8.63;;;;;;;28.08;34.79;95483.94;6126968;28;104200;-52
2022/07/20 12:36:38;;;;;;;34.03;8.20;;;;;;;27.98;34.39;95482.44;6136312;28;103034;-52
2022/07/20 12:39:47;;;;;;;31.23;8.53;;;;;;;27.95;35.00;95477.72;6135894;28;104303;-52
2022/07/20 12:42:50;;;;;;;31.67;8.93;;;;;;;28.00;35.36;95471.34;6135767;28;103289;-53
2022/07/20 12:45:53;;;;;;;32.33;8.20;;;;;;;28.11;34.70;95464.41;6126559;28;102929;-52
2022/07/20 12:48:56;;;;;;;44.87;9.37;;;;;;;28.13;34.39;95472.16;6159528;28;103006;-52
2022/07/20 12:52:00;;;;;;;52.13;9.30;;;;;;;28.23;34.83;95464.44;6159868;28;104574;-52
2022/07/20 12:55:05;;;;;;;43.60;9.20;;;;;;;28.27;34.28;95461.84;6149746;28;105424;-52
2022/07/20 12:58:08;;;;;;;29.87;7.70;;;;;;;28.34;33.69;95452.09;6159876;28;104082;-52
2022/07/20 13:01:13;;;;;;;30.50;8.90;;;;;;;28.33;33.89;95444.34;6159599;28;103507;-51
2022/07/20 13:04:18;;;;;;;55.50;11.50;;;;;;;28.17;33.75;95443.44;6160590;28;102781;-53
2022/07/20 13:07:21;;;;;;;53.20;9.47;;;;;;;28.19;33.49;95438.50;6149038;28;103937;-53
2022/07/20 13:10:26;;;;;;;25.90;6.43;;;;;;;28.16;33.51;95434.59;6160521;28;103645;-52
2022/07/20 13:13:29;;;;;;;3.93;2.90;;;;;;;28.07;32.12;95427.75;6147763;28;104018;-53
2022/07/20 13:16:33;;;;;;;2.47;2.27;;;;;;;27.90;30.60;95424.13;6135247;28;104281;-52
2022/07/20 13:19:36;;;;;;;3.00;2.40;;;;;;;27.87;31.27;95424.78;6124734;28;102972;-52
2022/07/20 13:22:47;;;;;;;2.40;2.20;;;;;;;27.78;29.67;95416.00;6135629;28;102585;-51
2022/07/20 13:25:52;;;;;;;5.47;3.23;;;;;;;27.67;30.42;95409.47;6135670;28;103620;-50
2022/07/20 13:28:55;;;;;;;5.00;2.60;;;;;;;27.70;30.41;95414.97;6129484;28;103223;-54
2022/07/20 13:31:58;;;;;;;3.23;2.60;;;;;;;27.74;29.75;95405.13;6132050;28;102791;-53
2022/07/20 13:35:02;;;;;;;4.63;2.77;;;;;;;27.89;29.33;95402.94;6134981;28;103117;-51
2022/07/20 13:38:07;;;;;;;3.50;2.70;;;;;;;28.06;30.22;95405.44;6135177;28;103134;-51
2022/07/20 13:41:14;;;;;;;10.67;2.90;;;;;;;28.13;30.50;95396.81;6125945;28;104253;-51
2022/07/20 13:44:17;;;;;;;5.77;2.50;;;;;;;28.29;30.29;95392.31;6134915;28;104224;-51
2022/07/20 13:47:21;;;;;;;5.53;3.07;;;;;;;28.34;30.79;95394.78;6147300;28;104052;-51
2022/07/20 13:50:24;;;;;;;4.23;2.77;;;;;;;28.41;30.92;95389.63;6158267;28;103271;-52
2022/07/20 13:53:47;;;;;;;8.23;4.00;;;;;;;28.43;30.98;95390.06;6148401;28;105534;-51
2022/07/20 13:56:52;;;;;;;4.43;3.27;;;;;;;28.46;31.11;95385.94;6159030;28;103320;-51
2022/07/20 13:59:55;;;;;;;7.33;3.23;;;;;;;28.45;31.31;95376.25;6158940;28;103294;-51
2022/07/20 14:02:58;;;;;;;3.73;3.27;;;;;;;28.45;31.51;95374.34;6149912;28;104131;-52
2022/07/20 14:06:04;;;;;;;3.30;2.70;;;;;;;28.32;31.06;95375.47;6158454;28;104089;-51
2022/07/20 14:09:08;;;;;;;3.90;2.90;;;;;;;28.18;31.38;95367.75;6159482;28;103275;-51
2022/07/20 14:12:12;;;;;;;4.73;3.00;;;;;;;28.07;31.75;95366.66;6159537;28;104199;-51
2022/07/20 14:15:17;;;;;;;4.67;2.80;;;;;;;27.96;32.21;95371.69;6148952;28;103457;-51
2022/07/20 14:18:20;;;;;;;3.20;2.90;;;;;;;28.01;31.55;95366.06;6158757;28;103210;-51